sensor_id;sensor_type;location;lat;lon;timestamp;P1;durP1;ratioP1;P2;durP2;ratioP2
12220;SDS011;6173;42.024;23.096;2022-08-21T00:00:12;9.60;;;3.77;;
12220;SDS011;6173;42.024;23.096;2022-08-21T00:02:44;9.47;;;3.80;;
12220;SDS011;6173;42.024;23.096;2022-08-21T00:05:14;8.93;;;3.50;;
12220;SDS011;6173;42.024;23.096;2022-08-21T00:07:42;7.83;;;3.80;;
12220;SDS011;6173;42.024;23.096;2022-08-21T00:10:09;6.57;;;3.67;;
12220;SDS011;6173;42.024;23.096;2022-08-21T00:12:37;7.50;;;3.50;;
12220;SDS011;6173;42.024;23.096;2022-08-21T00:15:04;10.30;;;3.60;;
12220;SDS011;6173;42.024;23.096;2022-08-21T00:17:32;8.30;;;4.17;;
12220;SDS011;6173;42.024;23.096;2022-08-21T00:19:59;11.30;;;3.97;;
12220;SDS011;6173;42.024;23.096;2022-08-21T00:22:27;11.53;;;4.57;;
12220;SDS011;6173;42.024;23.096;2022-08-21T00:24:54;4.27;;;3.60;;
12220;SDS011;6173;42.024;23.096;2022-08-21T00:27:21;8.40;;;4.40;;
12220;SDS011;6173;42.024;23.096;2022-08-21T00:29:48;6.03;;;4.57;;
12220;SDS011;6173;42.024;23.096;2022-08-21T00:32:19;6.30;;;4.57;;
12220;SDS011;6173;42.024;23.096;2022-08-21T00:34:46;9.13;;;4.13;;
12220;SDS011;6173;42.024;23.096;2022-08-21T00:37:13;6.77;;;4.47;;
12220;SDS011;6173;42.024;23.096;2022-08-21T00:39:41;7.23;;;5.00;;
12220;SDS011;6173;42.024;23.096;2022-08-21T00:42:08;7.67;;;5.57;;
12220;SDS011;6173;42.024;23.096;2022-08-21T00:44:34;7.93;;;5.10;;
12220;SDS011;6173;42.024;23.096;2022-08-21T00:47:01;9.37;;;5.30;;
12220;SDS011;6173;42.024;23.096;2022-08-21T00:49:28;11.50;;;4.67;;
12220;SDS011;6173;42.024;23.096;2022-08-21T00:51:57;8.10;;;5.10;;
12220;SDS011;6173;42.024;23.096;2022-08-21T00:54:28;7.83;;;4.87;;
12220;SDS011;6173;42.024;23.096;2022-08-21T00:56:59;10.57;;;5.03;;
12220;SDS011;6173;42.024;23.096;2022-08-21T00:59:28;5.73;;;4.63;;
12220;SDS011;6173;42.024;23.096;2022-08-21T01:01:58;10.90;;;4.60;;
12220;SDS011;6173;42.024;23.096;2022-08-21T01:04:25;6.73;;;3.83;;
12220;SDS011;6173;42.024;23.096;2022-08-21T01:06:52;7.57;;;3.53;;
12220;SDS011;6173;42.024;23.096;2022-08-21T01:09:20;8.30;;;3.83;;
12220;SDS011;6173;42.024;23.096;2022-08-21T01:11:47;9.20;;;3.83;;
12220;SDS011;6173;42.024;23.096;2022-08-21T01:14:15;9.90;;;4.67;;
12220;SDS011;6173;42.024;23.096;2022-08-21T01:16:45;7.67;;;4.00;;
12220;SDS011;6173;42.024;23.096;2022-08-21T01:19:13;13.47;;;4.20;;
12220;SDS011;6173;42.024;23.096;2022-08-21T01:21:43;5.83;;;3.73;;
12220;SDS011;6173;42.024;23.096;2022-08-21T01:24:10;9.43;;;4.00;;
12220;SDS011;6173;42.024;23.096;2022-08-21T01:26:37;7.53;;;3.80;;
12220;SDS011;6173;42.024;23.096;2022-08-21T01:29:05;9.30;;;4.03;;
12220;SDS011;6173;42.024;23.096;2022-08-21T01:31:36;7.17;;;4.40;;
12220;SDS011;6173;42.024;23.096;2022-08-21T01:34:02;8.60;;;4.83;;
12220;SDS011;6173;42.024;23.096;2022-08-21T01:36:30;6.63;;;4.50;;
12220;SDS011;6173;42.024;23.096;2022-08-21T01:38:58;8.47;;;4.60;;
12220;SDS011;6173;42.024;23.096;2022-08-21T01:41:25;7.90;;;4.70;;
12220;SDS011;6173;42.024;23.096;2022-08-21T01:43:52;8.30;;;4.43;;
12220;SDS011;6173;42.024;23.096;2022-08-21T01:46:19;11.13;;;4.57;;
12220;SDS011;6173;42.024;23.096;2022-08-21T01:48:45;13.97;;;4.33;;
12220;SDS011;6173;42.024;23.096;2022-08-21T01:51:12;11.73;;;5.20;;
12220;SDS011;6173;42.024;23.096;2022-08-21T01:53:39;8.30;;;5.20;;
12220;SDS011;6173;42.024;23.096;2022-08-21T01:56:08;9.20;;;5.23;;
12220;SDS011;6173;42.024;23.096;2022-08-21T01:58:36;8.63;;;4.90;;
12220;SDS011;6173;42.024;23.096;2022-08-21T02:01:03;14.07;;;6.07;;
12220;SDS011;6173;42.024;23.096;2022-08-21T02:03:30;8.23;;;4.97;;
12220;SDS011;6173;42.024;23.096;2022-08-21T02:05:57;18.37;;;6.00;;
12220;SDS011;6173;42.024;23.096;2022-08-21T02:08:24;9.33;;;4.87;;
12220;SDS011;6173;42.024;23.096;2022-08-21T02:10:51;9.20;;;5.50;;
12220;SDS011;6173;42.024;23.096;2022-08-21T02:13:19;12.03;;;4.93;;
12220;SDS011;6173;42.024;23.096;2022-08-21T02:15:46;13.17;;;5.20;;
12220;SDS011;6173;42.024;23.096;2022-08-21T02:18:13;11.83;;;5.50;;
12220;SDS011;6173;42.024;23.096;2022-08-21T02:20:42;9.57;;;4.80;;
12220;SDS011;6173;42.024;23.096;2022-08-21T02:23:11;11.83;;;5.40;;
12220;SDS011;6173;42.024;23.096;2022-08-21T02:25:39;11.93;;;5.67;;
12220;SDS011;6173;42.024;23.096;2022-08-21T02:28:07;13.17;;;6.07;;
12220;SDS011;6173;42.024;23.096;2022-08-21T02:30:39;12.20;;;6.20;;
12220;SDS011;6173;42.024;23.096;2022-08-21T02:33:08;10.27;;;5.30;;
12220;SDS011;6173;42.024;23.096;2022-08-21T02:35:36;11.53;;;5.37;;
12220;SDS011;6173;42.024;23.096;2022-08-21T02:38:06;8.50;;;4.87;;
12220;SDS011;6173;42.024;23.096;2022-08-21T02:40:37;8.60;;;4.60;;
12220;SDS011;6173;42.024;23.096;2022-08-21T02:43:05;9.20;;;4.57;;
12220;SDS011;6173;42.024;23.096;2022-08-21T02:45:33;10.97;;;5.00;;
12220;SDS011;6173;42.024;23.096;2022-08-21T02:48:03;8.00;;;4.70;;
12220;SDS011;6173;42.024;23.096;2022-08-21T02:50:38;23.47;;;5.17;;
12220;SDS011;6173;42.024;23.096;2022-08-21T02:53:08;13.43;;;4.97;;
12220;SDS011;6173;42.024;23.096;2022-08-21T02:55:38;17.17;;;6.47;;
12220;SDS011;6173;42.024;23.096;2022-08-21T02:58:06;10.80;;;5.83;;
12220;SDS011;6173;42.024;23.096;2022-08-21T03:00:34;10.33;;;5.97;;
12220;SDS011;6173;42.024;23.096;2022-08-21T03:03:03;11.63;;;6.03;;
12220;SDS011;6173;42.024;23.096;2022-08-21T03:05:31;9.33;;;6.60;;
12220;SDS011;6173;42.024;23.096;2022-08-21T03:08:03;15.93;;;6.27;;
12220;SDS011;6173;42.024;23.096;2022-08-21T03:10:31;14.57;;;6.10;;
12220;SDS011;6173;42.024;23.096;2022-08-21T03:12:58;10.40;;;5.10;;
12220;SDS011;6173;42.024;23.096;2022-08-21T03:15:25;10.32;;;5.45;;
12220;SDS011;6173;42.024;23.096;2022-08-21T03:17:52;10.93;;;4.73;;
12220;SDS011;6173;42.024;23.096;2022-08-21T03:20:23;11.90;;;4.63;;
12220;SDS011;6173;42.024;23.096;2022-08-21T03:22:54;6.80;;;4.70;;
12220;SDS011;6173;42.024;23.096;2022-08-21T03:25:22;9.00;;;5.10;;
12220;SDS011;6173;42.024;23.096;2022-08-21T03:27:50;11.00;;;5.70;;
12220;SDS011;6173;42.024;23.096;2022-08-21T03:30:17;7.83;;;5.87;;
12220;SDS011;6173;42.024;23.096;2022-08-21T03:32:45;13.33;;;5.80;;
12220;SDS011;6173;42.024;23.096;2022-08-21T03:35:12;13.80;;;6.33;;
12220;SDS011;6173;42.024;23.096;2022-08-21T03:37:41;12.33;;;6.40;;
12220;SDS011;6173;42.024;23.096;2022-08-21T03:40:09;13.90;;;6.83;;
12220;SDS011;6173;42.024;23.096;2022-08-21T03:42:37;12.50;;;7.93;;
12220;SDS011;6173;42.024;23.096;2022-08-21T03:45:05;11.70;;;8.30;;
12220;SDS011;6173;42.024;23.096;2022-08-21T03:47:32;19.57;;;8.70;;
12220;SDS011;6173;42.024;23.096;2022-08-21T03:50:00;11.50;;;8.77;;
12220;SDS011;6173;42.024;23.096;2022-08-21T03:52:27;12.07;;;6.13;;
12220;SDS011;6173;42.024;23.096;2022-08-21T03:54:55;12.50;;;6.37;;
12220;SDS011;6173;42.024;23.096;2022-08-21T03:57:22;17.67;;;6.57;;
12220;SDS011;6173;42.024;23.096;2022-08-21T03:59:49;10.40;;;5.97;;
12220;SDS011;6173;42.024;23.096;2022-08-21T04:02:16;12.13;;;5.57;;
12220;SDS011;6173;42.024;23.096;2022-08-21T04:04:46;11.40;;;5.43;;
12220;SDS011;6173;42.024;23.096;2022-08-21T04:07:13;12.17;;;5.50;;
12220;SDS011;6173;42.024;23.096;2022-08-21T04:09:39;13.13;;;5.70;;
12220;SDS011;6173;42.024;23.096;2022-08-21T04:12:08;12.43;;;6.63;;
12220;SDS011;6173;42.024;23.096;2022-08-21T04:14:36;12.23;;;7.47;;
12220;SDS011;6173;42.024;23.096;2022-08-21T04:17:03;18.67;;;7.60;;
12220;SDS011;6173;42.024;23.096;2022-08-21T04:19:30;16.70;;;9.13;;
12220;SDS011;6173;42.024;23.096;2022-08-21T04:21:57;16.33;;;10.50;;
12220;SDS011;6173;42.024;23.096;2022-08-21T04:24:23;19.90;;;11.53;;
12220;SDS011;6173;42.024;23.096;2022-08-21T04:26:50;17.73;;;12.33;;
12220;SDS011;6173;42.024;23.096;2022-08-21T04:29:18;18.53;;;12.73;;
12220;SDS011;6173;42.024;23.096;2022-08-21T04:31:45;13.57;;;9.70;;
12220;SDS011;6173;42.024;23.096;2022-08-21T04:34:12;16.60;;;9.27;;
12220;SDS011;6173;42.024;23.096;2022-08-21T04:36:39;14.53;;;7.90;;
12220;SDS011;6173;42.024;23.096;2022-08-21T04:39:06;15.00;;;7.53;;
12220;SDS011;6173;42.024;23.096;2022-08-21T04:41:33;17.87;;;7.03;;
12220;SDS011;6173;42.024;23.096;2022-08-21T04:44:01;12.47;;;6.30;;
12220;SDS011;6173;42.024;23.096;2022-08-21T04:46:29;8.13;;;5.20;;
12220;SDS011;6173;42.024;23.096;2022-08-21T04:48:56;9.30;;;5.87;;
12220;SDS011;6173;42.024;23.096;2022-08-21T04:51:24;11.23;;;5.93;;
12220;SDS011;6173;42.024;23.096;2022-08-21T04:53:57;13.67;;;6.80;;
12220;SDS011;6173;42.024;23.096;2022-08-21T04:56:27;9.90;;;6.17;;
12220;SDS011;6173;42.024;23.096;2022-08-21T04:58:58;19.87;;;8.30;;
12220;SDS011;6173;42.024;23.096;2022-08-21T05:01:31;11.37;;;5.97;;
12220;SDS011;6173;42.024;23.096;2022-08-21T05:04:00;13.20;;;5.63;;
12220;SDS011;6173;42.024;23.096;2022-08-21T05:06:30;9.67;;;5.63;;
12220;SDS011;6173;42.024;23.096;2022-08-21T05:09:02;8.10;;;5.10;;
12220;SDS011;6173;42.024;23.096;2022-08-21T05:11:30;12.73;;;5.40;;
12220;SDS011;6173;42.024;23.096;2022-08-21T05:14:00;9.43;;;5.33;;
12220;SDS011;6173;42.024;23.096;2022-08-21T05:16:27;14.67;;;5.13;;
12220;SDS011;6173;42.024;23.096;2022-08-21T05:18:55;12.83;;;4.97;;
12220;SDS011;6173;42.024;23.096;2022-08-21T05:21:21;11.93;;;5.07;;
12220;SDS011;6173;42.024;23.096;2022-08-21T05:23:48;15.27;;;6.07;;
12220;SDS011;6173;42.024;23.096;2022-08-21T05:26:15;12.63;;;5.90;;
12220;SDS011;6173;42.024;23.096;2022-08-21T05:28:42;10.60;;;6.10;;
12220;SDS011;6173;42.024;23.096;2022-08-21T05:31:08;11.73;;;6.17;;
12220;SDS011;6173;42.024;23.096;2022-08-21T05:33:35;11.53;;;6.23;;
12220;SDS011;6173;42.024;23.096;2022-08-21T05:36:04;12.07;;;6.60;;
12220;SDS011;6173;42.024;23.096;2022-08-21T05:38:31;11.53;;;6.27;;
12220;SDS011;6173;42.024;23.096;2022-08-21T05:40:57;20.60;;;7.00;;
12220;SDS011;6173;42.024;23.096;2022-08-21T05:43:24;14.77;;;7.17;;
12220;SDS011;6173;42.024;23.096;2022-08-21T05:45:51;16.40;;;9.07;;
12220;SDS011;6173;42.024;23.096;2022-08-21T05:48:19;16.40;;;8.17;;
12220;SDS011;6173;42.024;23.096;2022-08-21T05:50:48;22.73;;;8.97;;
12220;SDS011;6173;42.024;23.096;2022-08-21T05:53:19;14.03;;;8.67;;
12220;SDS011;6173;42.024;23.096;2022-08-21T05:55:48;15.33;;;8.27;;
12220;SDS011;6173;42.024;23.096;2022-08-21T05:58:16;20.23;;;8.43;;
12220;SDS011;6173;42.024;23.096;2022-08-21T06:00:44;15.70;;;7.93;;
12220;SDS011;6173;42.024;23.096;2022-08-21T06:03:14;24.07;;;10.43;;
12220;SDS011;6173;42.024;23.096;2022-08-21T06:05:42;20.67;;;11.63;;
12220;SDS011;6173;42.024;23.096;2022-08-21T06:08:12;22.97;;;11.70;;
12220;SDS011;6173;42.024;23.096;2022-08-21T06:10:40;22.70;;;15.07;;
12220;SDS011;6173;42.024;23.096;2022-08-21T06:13:07;21.40;;;16.60;;
12220;SDS011;6173;42.024;23.096;2022-08-21T06:15:34;20.97;;;16.37;;
12220;SDS011;6173;42.024;23.096;2022-08-21T06:18:01;27.40;;;16.67;;
12220;SDS011;6173;42.024;23.096;2022-08-21T06:20:28;25.13;;;16.97;;
12220;SDS011;6173;42.024;23.096;2022-08-21T06:22:55;30.80;;;14.97;;
12220;SDS011;6173;42.024;23.096;2022-08-21T06:25:22;25.53;;;16.33;;
12220;SDS011;6173;42.024;23.096;2022-08-21T06:27:52;24.83;;;16.67;;
12220;SDS011;6173;42.024;23.096;2022-08-21T06:30:19;29.53;;;17.23;;
12220;SDS011;6173;42.024;23.096;2022-08-21T06:32:46;23.23;;;17.10;;
12220;SDS011;6173;42.024;23.096;2022-08-21T06:35:13;27.00;;;16.13;;
12220;SDS011;6173;42.024;23.096;2022-08-21T06:37:39;23.67;;;14.97;;
12220;SDS011;6173;42.024;23.096;2022-08-21T06:40:07;21.07;;;12.73;;
12220;SDS011;6173;42.024;23.096;2022-08-21T06:42:34;22.73;;;15.43;;
12220;SDS011;6173;42.024;23.096;2022-08-21T06:45:04;20.87;;;15.07;;
12220;SDS011;6173;42.024;23.096;2022-08-21T06:47:32;23.87;;;16.17;;
12220;SDS011;6173;42.024;23.096;2022-08-21T06:49:58;23.63;;;16.10;;
12220;SDS011;6173;42.024;23.096;2022-08-21T06:52:25;26.20;;;15.60;;
12220;SDS011;6173;42.024;23.096;2022-08-21T06:54:52;18.83;;;14.63;;
12220;SDS011;6173;42.024;23.096;2022-08-21T06:57:19;27.03;;;15.17;;
12220;SDS011;6173;42.024;23.096;2022-08-21T06:59:46;21.43;;;14.43;;
12220;SDS011;6173;42.024;23.096;2022-08-21T07:02:14;28.97;;;15.07;;
12220;SDS011;6173;42.024;23.096;2022-08-21T07:04:42;20.83;;;14.70;;
12220;SDS011;6173;42.024;23.096;2022-08-21T07:07:09;20.67;;;14.77;;
12220;SDS011;6173;42.024;23.096;2022-08-21T07:09:36;24.20;;;16.13;;
12220;SDS011;6173;42.024;23.096;2022-08-21T07:12:03;25.63;;;15.67;;
12220;SDS011;6173;42.024;23.096;2022-08-21T07:14:30;19.87;;;15.53;;
12220;SDS011;6173;42.024;23.096;2022-08-21T07:16:57;31.50;;;17.27;;
12220;SDS011;6173;42.024;23.096;2022-08-21T07:19:25;24.43;;;15.70;;
12220;SDS011;6173;42.024;23.096;2022-08-21T07:21:52;23.43;;;15.20;;
12220;SDS011;6173;42.024;23.096;2022-08-21T07:24:21;21.50;;;14.73;;
12220;SDS011;6173;42.024;23.096;2022-08-21T07:26:48;17.87;;;14.13;;
12220;SDS011;6173;42.024;23.096;2022-08-21T07:29:14;22.10;;;14.20;;
12220;SDS011;6173;42.024;23.096;2022-08-21T07:31:42;20.23;;;14.77;;
12220;SDS011;6173;42.024;23.096;2022-08-21T07:34:09;23.10;;;15.73;;
12220;SDS011;6173;42.024;23.096;2022-08-21T07:36:37;27.77;;;17.10;;
12220;SDS011;6173;42.024;23.096;2022-08-21T07:39:03;27.43;;;15.33;;
12220;SDS011;6173;42.024;23.096;2022-08-21T07:41:30;23.50;;;15.03;;
12220;SDS011;6173;42.024;23.096;2022-08-21T07:43:59;18.40;;;13.03;;
12220;SDS011;6173;42.024;23.096;2022-08-21T07:46:26;22.50;;;14.27;;
12220;SDS011;6173;42.024;23.096;2022-08-21T07:48:53;23.80;;;15.33;;
12220;SDS011;6173;42.024;23.096;2022-08-21T07:51:21;17.80;;;13.90;;
12220;SDS011;6173;42.024;23.096;2022-08-21T07:53:55;19.90;;;14.93;;
12220;SDS011;6173;42.024;23.096;2022-08-21T07:56:23;20.57;;;15.43;;
12220;SDS011;6173;42.024;23.096;2022-08-21T07:58:50;19.50;;;15.53;;
12220;SDS011;6173;42.024;23.096;2022-08-21T08:01:17;22.80;;;16.47;;
12220;SDS011;6173;42.024;23.096;2022-08-21T08:03:44;25.37;;;15.97;;
12220;SDS011;6173;42.024;23.096;2022-08-21T08:06:12;28.83;;;17.47;;
12220;SDS011;6173;42.024;23.096;2022-08-21T08:08:39;24.70;;;16.10;;
12220;SDS011;6173;42.024;23.096;2022-08-21T08:11:08;23.90;;;16.67;;
12220;SDS011;6173;42.024;23.096;2022-08-21T08:13:38;24.90;;;16.37;;
12220;SDS011;6173;42.024;23.096;2022-08-21T08:16:05;23.17;;;17.20;;
12220;SDS011;6173;42.024;23.096;2022-08-21T08:18:32;21.83;;;17.13;;
12220;SDS011;6173;42.024;23.096;2022-08-21T08:20:59;20.40;;;16.67;;
12220;SDS011;6173;42.024;23.096;2022-08-21T08:23:26;27.50;;;17.63;;
12220;SDS011;6173;42.024;23.096;2022-08-21T08:25:53;28.92;;;21.55;;
12220;SDS011;6173;42.024;23.096;2022-08-21T08:28:21;29.30;;;18.23;;
12220;SDS011;6173;42.024;23.096;2022-08-21T08:30:48;30.53;;;17.50;;
12220;SDS011;6173;42.024;23.096;2022-08-21T08:33:16;22.13;;;18.08;;
12220;SDS011;6173;42.024;23.096;2022-08-21T08:35:44;26.80;;;16.53;;
12220;SDS011;6173;42.024;23.096;2022-08-21T08:38:13;20.57;;;15.90;;
12220;SDS011;6173;42.024;23.096;2022-08-21T08:40:45;37.10;;;17.27;;
12220;SDS011;6173;42.024;23.096;2022-08-21T08:43:18;18.30;;;15.07;;
12220;SDS011;6173;42.024;23.096;2022-08-21T08:45:47;19.97;;;14.20;;
12220;SDS011;6173;42.024;23.096;2022-08-21T08:48:19;24.80;;;14.87;;
12220;SDS011;6173;42.024;23.096;2022-08-21T08:50:58;20.50;;;14.60;;
12220;SDS011;6173;42.024;23.096;2022-08-21T08:53:28;21.03;;;14.13;;
12220;SDS011;6173;42.024;23.096;2022-08-21T08:55:58;19.13;;;13.83;;
12220;SDS011;6173;42.024;23.096;2022-08-21T08:58:27;21.30;;;13.90;;
12220;SDS011;6173;42.024;23.096;2022-08-21T09:00:59;26.43;;;13.63;;
12220;SDS011;6173;42.024;23.096;2022-08-21T09:03:26;21.13;;;14.50;;
12220;SDS011;6173;42.024;23.096;2022-08-21T09:05:55;23.03;;;13.67;;
12220;SDS011;6173;42.024;23.096;2022-08-21T09:08:34;26.20;;;15.40;;
12220;SDS011;6173;42.024;23.096;2022-08-21T09:11:16;20.37;;;15.33;;
12220;SDS011;6173;42.024;23.096;2022-08-21T09:13:50;16.03;;;13.70;;
12220;SDS011;6173;42.024;23.096;2022-08-21T09:16:30;18.47;;;14.40;;
12220;SDS011;6173;42.024;23.096;2022-08-21T09:19:09;19.93;;;15.27;;
12220;SDS011;6173;42.024;23.096;2022-08-21T09:21:56;22.90;;;15.20;;
12220;SDS011;6173;42.024;23.096;2022-08-21T09:24:31;20.40;;;15.23;;
12220;SDS011;6173;42.024;23.096;2022-08-21T09:27:02;24.23;;;15.07;;
12220;SDS011;6173;42.024;23.096;2022-08-21T09:29:33;21.73;;;15.17;;
12220;SDS011;6173;42.024;23.096;2022-08-21T09:32:04;18.10;;;14.73;;
12220;SDS011;6173;42.024;23.096;2022-08-21T09:34:38;21.13;;;15.40;;
12220;SDS011;6173;42.024;23.096;2022-08-21T09:37:05;21.20;;;16.67;;
12220;SDS011;6173;42.024;23.096;2022-08-21T09:39:42;23.73;;;17.67;;
12220;SDS011;6173;42.024;23.096;2022-08-21T09:42:10;21.50;;;15.97;;
12220;SDS011;6173;42.024;23.096;2022-08-21T09:44:38;22.17;;;17.90;;
12220;SDS011;6173;42.024;23.096;2022-08-21T09:47:08;24.17;;;17.93;;
12220;SDS011;6173;42.024;23.096;2022-08-21T09:49:37;22.53;;;18.27;;
12220;SDS011;6173;42.024;23.096;2022-08-21T09:52:10;29.10;;;18.87;;
12220;SDS011;6173;42.024;23.096;2022-08-21T09:54:44;27.60;;;19.70;;
12220;SDS011;6173;42.024;23.096;2022-08-21T09:57:14;23.10;;;20.20;;
12220;SDS011;6173;42.024;23.096;2022-08-21T10:00:18;27.23;;;20.53;;
12220;SDS011;6173;42.024;23.096;2022-08-21T10:02:48;26.57;;;20.90;;
12220;SDS011;6173;42.024;23.096;2022-08-21T10:05:16;25.37;;;20.33;;
12220;SDS011;6173;42.024;23.096;2022-08-21T10:07:44;30.97;;;20.53;;
12220;SDS011;6173;42.024;23.096;2022-08-21T10:10:14;33.13;;;20.37;;
12220;SDS011;6173;42.024;23.096;2022-08-21T10:12:45;24.45;;;21.35;;
12220;SDS011;6173;42.024;23.096;2022-08-21T10:15:20;24.73;;;19.07;;
12220;SDS011;6173;42.024;23.096;2022-08-21T10:17:54;23.23;;;18.97;;
12220;SDS011;6173;42.024;23.096;2022-08-21T10:20:29;25.13;;;19.90;;
12220;SDS011;6173;42.024;23.096;2022-08-21T10:23:07;26.87;;;20.57;;
12220;SDS011;6173;42.024;23.096;2022-08-21T10:25:56;27.00;;;20.93;;
12220;SDS011;6173;42.024;23.096;2022-08-21T10:28:30;26.70;;;19.93;;
12220;SDS011;6173;42.024;23.096;2022-08-21T10:31:06;24.07;;;21.43;;
12220;SDS011;6173;42.024;23.096;2022-08-21T10:33:42;25.83;;;20.88;;
12220;SDS011;6173;42.024;23.096;2022-08-21T10:36:19;25.93;;;18.30;;
12220;SDS011;6173;42.024;23.096;2022-08-21T10:38:59;22.10;;;18.30;;
12220;SDS011;6173;42.024;23.096;2022-08-21T10:41:41;24.03;;;19.20;;
12220;SDS011;6173;42.024;23.096;2022-08-21T10:44:25;22.03;;;18.37;;
12220;SDS011;6173;42.024;23.096;2022-08-21T10:47:04;22.97;;;18.13;;
12220;SDS011;6173;42.024;23.096;2022-08-21T10:49:38;23.20;;;18.63;;
12220;SDS011;6173;42.024;23.096;2022-08-21T10:52:22;21.57;;;17.23;;
12220;SDS011;6173;42.024;23.096;2022-08-21T10:55:00;24.17;;;17.03;;
12220;SDS011;6173;42.024;23.096;2022-08-21T10:57:33;20.30;;;14.80;;
12220;SDS011;6173;42.024;23.096;2022-08-21T11:00:07;21.03;;;14.83;;
12220;SDS011;6173;42.024;23.096;2022-08-21T11:02:39;19.60;;;15.57;;
12220;SDS011;6173;42.024;23.096;2022-08-21T11:05:12;23.43;;;16.63;;
12220;SDS011;6173;42.024;23.096;2022-08-21T11:07:43;22.37;;;16.13;;
12220;SDS011;6173;42.024;23.096;2022-08-21T11:10:16;22.87;;;15.60;;
12220;SDS011;6173;42.024;23.096;2022-08-21T11:12:48;20.40;;;15.57;;
12220;SDS011;6173;42.024;23.096;2022-08-21T11:15:24;24.27;;;16.20;;
12220;SDS011;6173;42.024;23.096;2022-08-21T11:17:56;20.50;;;16.20;;
12220;SDS011;6173;42.024;23.096;2022-08-21T11:20:33;21.47;;;16.37;;
12220;SDS011;6173;42.024;23.096;2022-08-21T11:23:07;23.10;;;17.67;;
12220;SDS011;6173;42.024;23.096;2022-08-21T11:25:49;22.10;;;17.50;;
12220;SDS011;6173;42.024;23.096;2022-08-21T11:28:21;22.07;;;18.13;;
12220;SDS011;6173;42.024;23.096;2022-08-21T11:30:57;23.17;;;19.17;;
12220;SDS011;6173;42.024;23.096;2022-08-21T11:33:37;23.60;;;17.23;;
12220;SDS011;6173;42.024;23.096;2022-08-21T11:36:19;23.47;;;17.90;;
12220;SDS011;6173;42.024;23.096;2022-08-21T11:38:53;23.87;;;19.47;;
12220;SDS011;6173;42.024;23.096;2022-08-21T11:41:28;24.40;;;17.03;;
12220;SDS011;6173;42.024;23.096;2022-08-21T11:44:02;23.07;;;17.67;;
12220;SDS011;6173;42.024;23.096;2022-08-21T11:46:37;26.30;;;16.57;;
12220;SDS011;6173;42.024;23.096;2022-08-21T11:49:29;17.77;;;14.93;;
12220;SDS011;6173;42.024;23.096;2022-08-21T11:52:10;20.20;;;14.83;;
12220;SDS011;6173;42.024;23.096;2022-08-21T11:54:43;17.23;;;13.70;;
12220;SDS011;6173;42.024;23.096;2022-08-21T11:57:14;16.10;;;13.20;;
12220;SDS011;6173;42.024;23.096;2022-08-21T11:59:48;14.93;;;12.17;;
12220;SDS011;6173;42.024;23.096;2022-08-21T12:02:19;19.93;;;12.07;;
12220;SDS011;6173;42.024;23.096;2022-08-21T12:04:49;13.53;;;11.93;;
12220;SDS011;6173;42.024;23.096;2022-08-21T12:07:30;15.03;;;12.20;;
12220;SDS011;6173;42.024;23.096;2022-08-21T12:10:01;17.03;;;12.37;;
12220;SDS011;6173;42.024;23.096;2022-08-21T12:12:32;18.50;;;13.77;;
12220;SDS011;6173;42.024;23.096;2022-08-21T12:17:58;17.40;;;13.70;;
12220;SDS011;6173;42.024;23.096;2022-08-21T12:20:33;18.03;;;14.00;;
12220;SDS011;6173;42.024;23.096;2022-08-21T12:23:15;17.83;;;14.17;;
12220;SDS011;6173;42.024;23.096;2022-08-21T12:25:45;17.83;;;14.17;;
12220;SDS011;6173;42.024;23.096;2022-08-21T12:28:15;18.17;;;14.27;;
12220;SDS011;6173;42.024;23.096;2022-08-21T12:30:48;13.23;;;11.93;;
12220;SDS011;6173;42.024;23.096;2022-08-21T12:33:19;15.60;;;11.57;;
12220;SDS011;6173;42.024;23.096;2022-08-21T12:35:50;12.47;;;10.47;;
12220;SDS011;6173;42.024;23.096;2022-08-21T12:38:21;20.00;;;11.80;;
12220;SDS011;6173;42.024;23.096;2022-08-21T12:40:53;16.80;;;11.57;;
12220;SDS011;6173;42.024;23.096;2022-08-21T12:43:24;15.57;;;12.27;;
12220;SDS011;6173;42.024;23.096;2022-08-21T12:45:54;17.90;;;12.90;;
12220;SDS011;6173;42.024;23.096;2022-08-21T12:48:23;21.67;;;13.67;;
12220;SDS011;6173;42.024;23.096;2022-08-21T12:50:53;17.37;;;14.23;;
12220;SDS011;6173;42.024;23.096;2022-08-21T12:53:25;16.23;;;14.23;;
12220;SDS011;6173;42.024;23.096;2022-08-21T12:56:00;22.83;;;13.27;;
12220;SDS011;6173;42.024;23.096;2022-08-21T12:58:29;18.17;;;14.40;;
12220;SDS011;6173;42.024;23.096;2022-08-21T13:00:58;14.90;;;13.30;;
12220;SDS011;6173;42.024;23.096;2022-08-21T13:03:29;16.17;;;14.33;;
12220;SDS011;6173;42.024;23.096;2022-08-21T13:05:57;19.13;;;14.23;;
12220;SDS011;6173;42.024;23.096;2022-08-21T13:08:26;19.70;;;13.83;;
12220;SDS011;6173;42.024;23.096;2022-08-21T13:10:57;16.53;;;13.27;;
12220;SDS011;6173;42.024;23.096;2022-08-21T13:13:31;17.93;;;13.27;;
12220;SDS011;6173;42.024;23.096;2022-08-21T13:15:59;18.03;;;12.60;;
12220;SDS011;6173;42.024;23.096;2022-08-21T13:18:29;12.57;;;9.93;;
12220;SDS011;6173;42.024;23.096;2022-08-21T13:21:05;12.70;;;9.77;;
12220;SDS011;6173;42.024;23.096;2022-08-21T13:23:35;10.83;;;9.27;;
12220;SDS011;6173;42.024;23.096;2022-08-21T13:26:11;13.77;;;8.73;;
12220;SDS011;6173;42.024;23.096;2022-08-21T13:28:38;12.77;;;9.47;;
12220;SDS011;6173;42.024;23.096;2022-08-21T13:31:06;10.20;;;8.83;;
12220;SDS011;6173;42.024;23.096;2022-08-21T13:33:36;11.53;;;9.03;;
12220;SDS011;6173;42.024;23.096;2022-08-21T13:36:09;11.93;;;9.68;;
12220;SDS011;6173;42.024;23.096;2022-08-21T13:38:39;11.57;;;10.20;;
12220;SDS011;6173;42.024;23.096;2022-08-21T13:41:10;15.67;;;10.00;;
12220;SDS011;6173;42.024;23.096;2022-08-21T13:43:49;13.30;;;9.83;;
12220;SDS011;6173;42.024;23.096;2022-08-21T13:46:22;11.30;;;8.93;;
12220;SDS011;6173;42.024;23.096;2022-08-21T13:48:53;10.10;;;8.97;;
12220;SDS011;6173;42.024;23.096;2022-08-21T13:51:20;13.03;;;8.83;;
12220;SDS011;6173;42.024;23.096;2022-08-21T13:53:49;10.70;;;8.30;;
12220;SDS011;6173;42.024;23.096;2022-08-21T13:56:23;9.03;;;8.13;;
12220;SDS011;6173;42.024;23.096;2022-08-21T13:58:53;13.30;;;8.00;;
12220;SDS011;6173;42.024;23.096;2022-08-21T14:01:23;11.00;;;8.63;;
12220;SDS011;6173;42.024;23.096;2022-08-21T14:03:53;11.60;;;8.70;;
12220;SDS011;6173;42.024;23.096;2022-08-21T14:06:24;10.90;;;8.43;;
12220;SDS011;6173;42.024;23.096;2022-08-21T14:08:55;10.53;;;8.60;;
12220;SDS011;6173;42.024;23.096;2022-08-21T14:11:24;11.67;;;8.73;;
12220;SDS011;6173;42.024;23.096;2022-08-21T14:13:56;12.20;;;7.70;;
12220;SDS011;6173;42.024;23.096;2022-08-21T14:16:26;13.60;;;8.97;;
12220;SDS011;6173;42.024;23.096;2022-08-21T14:19:07;11.27;;;7.83;;
12220;SDS011;6173;42.024;23.096;2022-08-21T14:21:37;9.87;;;7.27;;
12220;SDS011;6173;42.024;23.096;2022-08-21T14:24:10;9.67;;;7.67;;
12220;SDS011;6173;42.024;23.096;2022-08-21T14:26:43;9.23;;;7.67;;
12220;SDS011;6173;42.024;23.096;2022-08-21T14:29:15;9.20;;;7.60;;
12220;SDS011;6173;42.024;23.096;2022-08-21T14:31:49;10.73;;;7.57;;
12220;SDS011;6173;42.024;23.096;2022-08-21T14:34:16;12.47;;;8.53;;
12220;SDS011;6173;42.024;23.096;2022-08-21T14:36:43;15.03;;;9.57;;
12220;SDS011;6173;42.024;23.096;2022-08-21T14:39:11;10.10;;;8.23;;
12220;SDS011;6173;42.024;23.096;2022-08-21T14:41:38;8.43;;;7.23;;
12220;SDS011;6173;42.024;23.096;2022-08-21T14:44:05;10.37;;;7.63;;
12220;SDS011;6173;42.024;23.096;2022-08-21T14:46:34;9.20;;;7.77;;
12220;SDS011;6173;42.024;23.096;2022-08-21T14:49:02;10.30;;;7.23;;